San Jose, Philippines
Current Conditions -  °F | °C
As of 10:00 AM on Monday 22 Dec 2014 (Local Time) from RPLL Reporting Station
Broken Clouds Broken Clouds  
Wind Chill: 82°   Ceiling: 10000
Heat Index: 87°   Visibility: 6mi
Dew Point: 72°   Wind: 6mph
Humidity: 70%   Direction: 300°WNW
Pressure: 29.91"   Gusts: NA
Location:  12.35°N, 121.03°E
Report Text: RPLL 220200Z 30005KT 250V040 9999 SCT023 BKN100 28/22 Q1013 Q1013 NOSIG RMK A2991
Loading
Personal Weather Stations






























Interactive Weather Map New forecast layout! Learn more

10-Day Weather Forecast

Advertisements
Track Severe Weather on mobile